Time;durP1;ratioP1;P1;durP2;ratioP2;P2;SDS_P1;SDS_P2;PMS_P1;PMS_P2;Temp;Humidity;BMP_temperature;BMP_pressure;BME280_temperature;BME280_humidity;BME280_pressure;Samples;Min_cycle;Max_cycle;Signal;HPM_P1;HPM_P2
2021/11/24 00:00:52;;;;;;;88.27;40.57;;;6.60;99.90;;;;;;5082337;28;20961;-69
2021/11/24 00:03:19;;;;;;;68.23;39.60;;;6.70;99.90;;;;;;5084347;28;20792;-70
2021/11/24 00:05:46;;;;;;;80.70;40.43;;;6.70;99.90;;;;;;5083963;28;20468;-71
2021/11/24 00:08:13;;;;;;;128.67;56.07;;;6.70;99.90;;;;;;5083248;28;20859;-72
2021/11/24 00:10:40;;;;;;;89.97;44.17;;;6.60;99.90;;;;;;5083472;28;20462;-73
2021/11/24 00:13:07;;;;;;;89.03;45.13;;;6.60;99.90;;;;;;5082019;28;21071;-72
2021/11/24 00:15:36;;;;;;;81.00;41.80;;;6.60;99.90;;;;;;5084962;28;20462;-71
2021/11/24 00:18:04;;;;;;;88.27;43.67;;;6.60;99.90;;;;;;5080833;28;20519;-71
2021/11/24 00:20:31;;;;;;;86.80;40.17;;;6.70;99.90;;;;;;5079805;28;20454;-73
2021/11/24 00:22:58;;;;;;;77.53;42.63;;;6.80;99.90;;;;;;5086770;28;20761;-71
2021/11/24 00:25:26;;;;;;;83.47;41.67;;;6.80;99.90;;;;;;5083935;28;20468;-71
2021/11/24 00:27:53;;;;;;;92.30;48.60;;;6.90;99.90;;;;;;5081029;28;20477;-71
2021/11/24 00:30:21;;;;;;;76.53;43.50;;;6.90;99.90;;;;;;5084440;28;20452;-74
2021/11/24 00:32:49;;;;;;;96.47;41.20;;;6.90;99.90;;;;;;5081801;28;20491;-70
2021/11/24 00:35:17;;;;;;;103.83;43.83;;;7.00;99.90;;;;;;5083750;28;20461;-71
2021/11/24 00:37:44;;;;;;;129.83;43.27;;;7.00;99.90;;;;;;5082254;28;20941;-71
2021/11/24 00:40:11;;;;;;;114.70;44.07;;;7.00;99.90;;;;;;5079187;28;20471;-69
2021/11/24 00:42:38;;;;;;;100.50;43.07;;;7.00;99.90;;;;;;5075536;28;20853;-70
2021/11/24 00:45:06;;;;;;;111.23;41.30;;;6.90;99.90;;;;;;5080262;28;20994;-71
2021/11/24 00:47:34;;;;;;;73.13;39.90;;;7.10;99.90;;;;;;5082931;28;20461;-70
2021/11/24 00:50:02;;;;;;;101.83;43.77;;;7.00;99.90;;;;;;5073168;28;20542;-71
2021/11/24 00:52:30;;;;;;;86.90;41.53;;;7.00;99.90;;;;;;5083215;28;20849;-72
2021/11/24 00:54:57;;;;;;;83.03;41.23;;;7.00;99.90;;;;;;5084063;28;20464;-70
2021/11/24 00:57:24;;;;;;;101.57;43.53;;;7.00;99.90;;;;;;5082092;28;20476;-72
2021/11/24 00:59:52;;;;;;;129.30;64.13;;;6.90;99.90;;;;;;5078870;28;20968;-71
2021/11/24 01:02:19;;;;;;;93.57;43.97;;;6.80;99.90;;;;;;5081973;28;20654;-72
2021/11/24 01:04:46;;;;;;;103.83;44.93;;;6.80;99.90;;;;;;5082864;28;20466;-73
2021/11/24 01:07:15;;;;;;;91.27;44.83;;;6.80;99.90;;;;;;5080922;28;20468;-73
2021/11/24 01:09:42;;;;;;;91.23;42.23;;;6.90;99.90;;;;;;5080589;28;20466;-72
2021/11/24 01:12:09;;;;;;;92.40;40.33;;;6.80;99.90;;;;;;5084337;28;20466;-71
2021/11/24 01:14:36;;;;;;;100.10;42.33;;;6.90;99.90;;;;;;5080261;28;20968;-71
2021/11/24 01:17:04;;;;;;;109.90;40.63;;;6.90;99.90;;;;;;5082081;28;20475;-70
2021/11/24 01:19:31;;;;;;;101.00;42.20;;;6.80;99.90;;;;;;5084638;28;20874;-72
2021/11/24 01:21:58;;;;;;;107.77;40.63;;;6.90;99.90;;;;;;5081635;28;20514;-70
2021/11/24 01:24:27;;;;;;;101.00;39.43;;;6.90;99.90;;;;;;5085919;28;20550;-73
2021/11/24 01:26:54;;;;;;;112.60;42.83;;;7.00;99.90;;;;;;5085401;28;20466;-73
2021/11/24 01:29:21;;;;;;;102.80;40.80;;;7.00;99.90;;;;;;5079778;28;20465;-70
2021/11/24 01:31:47;;;;;;;131.17;41.73;;;7.00;99.90;;;;;;5077645;28;20469;-70
2021/11/24 01:34:15;;;;;;;121.03;43.77;;;7.10;99.90;;;;;;5082284;28;20524;-70
2021/11/24 01:36:42;;;;;;;123.40;40.87;;;7.20;99.90;;;;;;5076666;28;20465;-74
2021/11/24 01:39:08;;;;;;;136.10;44.10;;;7.20;99.90;;;;;;5084479;28;20459;-73
2021/11/24 01:41:37;;;;;;;126.70;44.30;;;7.10;99.90;;;;;;5077689;28;20451;-71
2021/11/24 01:44:04;;;;;;;113.90;43.47;;;7.20;99.90;;;;;;5081217;28;21013;-70
2021/11/24 01:46:31;;;;;;;164.43;46.37;;;7.10;99.90;;;;;;5078118;28;20462;-70
2021/11/24 01:48:58;;;;;;;173.10;45.40;;;7.00;99.90;;;;;;5075890;28;20731;-71
2021/11/24 01:51:25;;;;;;;114.73;42.40;;;7.10;99.90;;;;;;5084926;28;20856;-71
2021/11/24 01:53:52;;;;;;;133.07;42.17;;;7.20;99.90;;;;;;5083584;28;20534;-71
2021/11/24 01:56:21;;;;;;;137.90;43.43;;;7.20;99.90;;;;;;5075591;28;20469;-73
2021/11/24 01:58:50;;;;;;;146.40;45.03;;;7.20;99.90;;;;;;5071968;28;20453;-69
2021/11/24 02:01:17;;;;;;;257.60;46.30;;;7.30;99.90;;;;;;5080492;28;20466;-70
2021/11/24 02:03:44;;;;;;;203.90;45.00;;;7.30;99.90;;;;;;5083657;28;20594;-70
2021/11/24 02:06:11;;;;;;;311.90;51.60;;;7.20;99.90;;;;;;5085673;28;21348;-70
2021/11/24 02:08:38;;;;;;;316.57;51.80;;;7.20;99.90;;;;;;5080943;28;20457;-73
2021/11/24 02:11:05;;;;;;;379.53;49.20;;;7.20;99.90;;;;;;5078303;28;20467;-70
2021/11/24 02:13:32;;;;;;;292.60;50.60;;;7.20;99.90;;;;;;5082629;28;20465;-71
2021/11/24 02:16:01;;;;;;;296.27;47.57;;;7.20;99.90;;;;;;5080362;28;20453;-70
2021/11/24 02:18:28;;;;;;;191.53;43.60;;;7.10;99.90;;;;;;5088054;28;20828;-71
2021/11/24 02:20:56;;;;;;;134.33;43.57;;;7.10;99.90;;;;;;5078019;28;20494;-71
2021/11/24 02:23:23;;;;;;;161.73;45.03;;;7.10;99.90;;;;;;5081567;28;20484;-69
2021/11/24 02:25:50;;;;;;;142.43;44.03;;;7.00;99.90;;;;;;5080220;28;20457;-71
2021/11/24 02:28:18;;;;;;;132.00;44.30;;;7.10;99.90;;;;;;5078655;28;20470;-74
2021/11/24 02:30:45;;;;;;;156.00;47.30;;;7.20;99.90;;;;;;5080806;28;21010;-72
2021/11/24 02:33:12;;;;;;;131.23;45.37;;;7.30;99.90;;;;;;5079631;28;20874;-69
2021/11/24 02:35:42;;;;;;;127.93;43.80;;;7.30;99.90;;;;;;5077977;28;20469;-69
2021/11/24 02:38:11;;;;;;;125.20;43.20;;;7.20;99.90;;;;;;5080976;28;20983;-69
2021/11/24 02:40:39;;;;;;;119.23;41.43;;;7.20;99.90;;;;;;5080707;28;20468;-70
2021/11/24 02:43:06;;;;;;;215.80;45.63;;;7.20;99.90;;;;;;5080607;28;20557;-69
2021/11/24 02:45:33;;;;;;;140.00;43.50;;;7.20;99.90;;;;;;5081462;28;20555;-69
2021/11/24 02:48:00;;;;;;;134.87;44.63;;;7.20;99.90;;;;;;5080297;28;20508;-69
2021/11/24 02:50:27;;;;;;;126.23;41.20;;;7.10;99.90;;;;;;5070643;28;20482;-69
2021/11/24 02:52:54;;;;;;;113.90;40.60;;;7.20;99.90;;;;;;5080496;28;20469;-69
2021/11/24 02:55:23;;;;;;;107.20;41.90;;;7.10;99.90;;;;;;5083872;28;20955;-69
2021/11/24 02:57:53;;;;;;;107.60;42.07;;;7.10;99.90;;;;;;5081336;28;20461;-69
2021/11/24 03:00:24;;;;;;;111.37;40.60;;;7.10;99.90;;;;;;5075544;28;20468;-69
2021/11/24 03:02:52;;;;;;;98.70;40.93;;;7.00;99.90;;;;;;5083350;28;20496;-69
2021/11/24 03:05:21;;;;;;;115.13;40.90;;;7.00;99.90;;;;;;5087307;28;20469;-69
2021/11/24 03:07:48;;;;;;;106.00;40.80;;;6.90;99.90;;;;;;5078240;28;20463;-70
2021/11/24 03:10:15;;;;;;;103.80;39.87;;;6.90;99.90;;;;;;5088316;28;20454;-69
2021/11/24 03:12:44;;;;;;;105.33;41.00;;;7.00;99.90;;;;;;5081971;28;20467;-69
2021/11/24 03:15:12;;;;;;;90.77;39.60;;;7.10;99.90;;;;;;5082327;28;20530;-69
2021/11/24 03:17:39;;;;;;;102.53;41.10;;;7.20;99.90;;;;;;5083918;28;20818;-69
2021/11/24 03:20:08;;;;;;;79.47;40.10;;;7.20;99.90;;;;;;5085165;28;20815;-69
2021/11/24 03:22:35;;;;;;;109.87;39.50;;;7.20;99.90;;;;;;5092828;28;20480;-69
2021/11/24 03:25:03;;;;;;;96.97;39.87;;;7.20;99.90;;;;;;5082301;28;20827;-69
2021/11/24 03:27:32;;;;;;;112.67;40.83;;;7.20;99.90;;;;;;5082014;28;20462;-69
2021/11/24 03:30:03;;;;;;;99.17;37.23;;;7.30;99.90;;;;;;5084903;28;20457;-69
2021/11/24 03:32:30;;;;;;;108.80;39.40;;;7.30;99.90;;;;;;5080556;28;20505;-69
2021/11/24 03:34:58;;;;;;;94.90;40.60;;;7.30;99.90;;;;;;5084390;28;20461;-72
2021/11/24 03:37:25;;;;;;;87.63;37.97;;;7.20;99.90;;;;;;5076663;28;20555;-72
2021/11/24 03:39:53;;;;;;;76.87;36.87;;;7.20;99.90;;;;;;5084247;28;20505;-72
2021/11/24 03:42:20;;;;;;;79.70;40.10;;;7.20;99.90;;;;;;5083987;28;20539;-75
2021/11/24 03:44:47;;;;;;;78.93;38.67;;;7.20;99.90;;;;;;5083714;28;20483;-73
2021/11/24 03:47:16;;;;;;;97.73;39.10;;;7.20;99.90;;;;;;5079477;28;20454;-72
2021/11/24 03:49:43;;;;;;;89.23;39.60;;;7.20;99.90;;;;;;5076968;28;20955;-70
2021/11/24 03:52:10;;;;;;;87.50;40.43;;;7.20;99.90;;;;;;5083806;28;20458;-69
2021/11/24 03:54:37;;;;;;;95.07;39.40;;;7.20;99.90;;;;;;5083703;28;20460;-72
2021/11/24 03:57:04;;;;;;;117.03;39.67;;;7.10;99.90;;;;;;5077955;28;21042;-72
2021/11/24 03:59:32;;;;;;;87.30;40.67;;;7.10;99.90;;;;;;5081330;28;20454;-70
2021/11/24 04:01:58;;;;;;;78.00;38.10;;;7.10;99.90;;;;;;5086897;28;20464;-70
2021/11/24 04:04:27;;;;;;;81.97;36.10;;;7.10;99.90;;;;;;5078171;28;20496;-70
2021/11/24 04:06:54;;;;;;;89.97;36.57;;;7.10;99.90;;;;;;5080458;28;20462;-72
2021/11/24 04:09:21;;;;;;;85.07;38.77;;;7.10;99.90;;;;;;5084326;28;20462;-71
2021/11/24 04:11:48;;;;;;;91.73;38.10;;;7.20;99.90;;;;;;5080188;28;20967;-69
2021/11/24 04:14:15;;;;;;;94.97;37.70;;;7.20;99.90;;;;;;5076167;28;20486;-69
2021/11/24 04:16:42;;;;;;;75.77;39.00;;;7.20;99.90;;;;;;5086283;28;20548;-69
2021/11/24 04:19:09;;;;;;;76.90;37.63;;;7.10;99.90;;;;;;5089703;28;20452;-69
2021/11/24 04:21:37;;;;;;;79.27;37.33;;;7.10;99.90;;;;;;5084187;28;20474;-69
2021/11/24 04:24:05;;;;;;;80.33;37.47;;;7.00;99.90;;;;;;5081107;28;20495;-69
2021/11/24 04:26:32;;;;;;;75.80;37.27;;;7.10;99.90;;;;;;5080285;28;20483;-69
2021/11/24 04:28:59;;;;;;;111.27;41.57;;;7.10;99.90;;;;;;5081836;28;20465;-70
2021/11/24 04:31:26;;;;;;;100.93;38.47;;;7.10;99.90;;;;;;5077473;28;20464;-69
2021/11/24 04:33:52;;;;;;;87.73;39.93;;;7.10;99.90;;;;;;5077454;28;21106;-69
2021/11/24 04:36:19;;;;;;;95.90;39.03;;;7.20;99.90;;;;;;5084067;28;20465;-69
2021/11/24 04:38:48;;;;;;;106.23;39.33;;;7.10;99.90;;;;;;5080085;28;20825;-72
2021/11/24 04:41:15;;;;;;;123.70;43.97;;;7.00;99.90;;;;;;5076036;28;20459;-72
2021/11/24 04:43:44;;;;;;;101.43;39.50;;;7.00;99.90;;;;;;5085426;28;21000;-69
2021/11/24 04:46:12;;;;;;;127.90;44.13;;;7.20;99.90;;;;;;5083889;28;20534;-74
2021/11/24 04:48:39;;;;;;;120.67;41.80;;;7.10;99.90;;;;;;5084685;28;20471;-70
2021/11/24 04:51:07;;;;;;;108.60;41.53;;;7.10;99.90;;;;;;5079694;28;20476;-72
2021/11/24 04:53:34;;;;;;;129.37;41.87;;;7.10;99.90;;;;;;5082055;28;20511;-70
2021/11/24 04:56:03;;;;;;;114.30;44.00;;;7.10;99.90;;;;;;5077878;28;20469;-70
2021/11/24 04:58:30;;;;;;;96.20;39.40;;;7.10;99.90;;;;;;5080602;28;20812;-73
2021/11/24 05:00:58;;;;;;;110.77;41.20;;;7.10;99.90;;;;;;5081866;28;20855;-71
2021/11/24 05:03:24;;;;;;;92.50;39.10;;;7.10;99.90;;;;;;5084164;28;20574;-71
2021/11/24 05:05:51;;;;;;;102.23;40.30;;;7.00;99.90;;;;;;5077417;28;20940;-73
2021/11/24 05:08:18;;;;;;;116.30;42.00;;;7.10;99.90;;;;;;5079210;28;20524;-70
2021/11/24 05:10:48;;;;;;;102.77;41.53;;;7.10;99.90;;;;;;5079077;28;20488;-72
2021/11/24 05:13:16;;;;;;;89.50;39.57;;;7.10;99.90;;;;;;5079151;28;20499;-71
2021/11/24 05:15:44;;;;;;;92.57;39.07;;;7.10;99.90;;;;;;5084152;28;20948;-70
2021/11/24 05:18:13;;;;;;;81.07;38.50;;;7.10;99.90;;;;;;5083561;28;20456;-71
2021/11/24 05:20:41;;;;;;;85.27;38.57;;;7.20;99.90;;;;;;5079308;28;20458;-70
2021/11/24 05:23:12;;;;;;;81.40;38.40;;;7.10;99.90;;;;;;5078991;28;20910;-73
2021/11/24 05:25:39;;;;;;;81.97;38.67;;;7.10;99.90;;;;;;5080295;28;20592;-71
2021/11/24 05:28:06;;;;;;;81.37;37.90;;;7.10;99.90;;;;;;5080557;28;20465;-73
2021/11/24 05:30:34;;;;;;;89.73;38.70;;;7.10;99.90;;;;;;5079373;28;20622;-69
2021/11/24 05:33:01;;;;;;;88.93;38.50;;;7.10;99.90;;;;;;5081529;28;20481;-69
2021/11/24 05:35:29;;;;;;;94.70;38.60;;;7.10;99.90;;;;;;5078229;28;20555;-70
2021/11/24 05:37:55;;;;;;;98.30;40.83;;;7.10;99.90;;;;;;5080445;28;20516;-68
2021/11/24 05:40:23;;;;;;;79.07;40.83;;;7.10;99.90;;;;;;5083306;28;20458;-73
2021/11/24 05:42:51;;;;;;;109.70;41.87;;;7.10;99.90;;;;;;5076053;28;20469;-73
2021/11/24 05:45:27;;;;;;;114.60;42.03;;;7.20;99.90;;;;;;5084794;28;20481;-69
2021/11/24 05:48:02;;;;;;;130.90;41.90;;;7.10;99.90;;;;;;5082814;28;20596;-71
2021/11/24 05:50:30;;;;;;;93.73;40.23;;;7.20;99.90;;;;;;5081305;28;20464;-71
2021/11/24 05:52:57;;;;;;;145.70;41.93;;;7.20;99.90;;;;;;5077167;28;20974;-71
2021/11/24 05:55:25;;;;;;;136.40;44.10;;;7.20;99.90;;;;;;5081001;28;20463;-72
2021/11/24 05:57:52;;;;;;;155.87;41.23;;;7.20;99.90;;;;;;5080650;28;20462;-70
2021/11/24 06:00:20;;;;;;;147.00;42.10;;;7.20;99.90;;;;;;5080034;28;20513;-72
2021/11/24 06:02:47;;;;;;;127.80;41.70;;;7.00;99.90;;;;;;5080340;28;20484;-69
2021/11/24 06:05:16;;;;;;;119.70;42.17;;;6.90;99.90;;;;;;5079736;28;20496;-70
2021/11/24 06:07:45;;;;;;;109.50;41.00;;;7.00;99.90;;;;;;5083116;28;20457;-71
2021/11/24 06:10:13;;;;;;;130.70;41.53;;;7.10;99.90;;;;;;5075320;28;20828;-71
2021/11/24 06:12:40;;;;;;;109.40;41.23;;;7.10;99.90;;;;;;5077975;28;20465;-72
2021/11/24 06:15:08;;;;;;;116.10;41.10;;;7.20;99.90;;;;;;5085320;28;20806;-71
2021/11/24 06:17:36;;;;;;;121.53;41.03;;;7.20;99.90;;;;;;5082494;28;20480;-70
2021/11/24 06:20:04;;;;;;;116.93;40.93;;;7.20;99.90;;;;;;5079562;28;20811;-73
2021/11/24 06:22:32;;;;;;;137.17;40.93;;;7.20;99.90;;;;;;5083457;28;20554;-69
2021/11/24 06:24:59;;;;;;;94.23;42.67;;;7.20;99.90;;;;;;5075565;28;20520;-70
2021/11/24 06:27:26;;;;;;;102.23;41.13;;;7.20;99.90;;;;;;5082276;28;20479;-70
2021/11/24 06:29:53;;;;;;;114.20;43.30;;;7.20;99.90;;;;;;5078983;28;20465;-71
2021/11/24 06:32:20;;;;;;;108.47;41.30;;;7.20;99.90;;;;;;5080161;28;20564;-71
2021/11/24 06:34:47;;;;;;;113.00;41.40;;;7.10;99.90;;;;;;5079573;28;20466;-70
2021/11/24 06:37:14;;;;;;;99.50;41.53;;;7.00;99.90;;;;;;5083458;28;20468;-71
2021/11/24 06:39:43;;;;;;;108.17;41.97;;;7.00;99.90;;;;;;5083135;28;20473;-72
2021/11/24 06:42:10;;;;;;;126.03;42.73;;;7.10;99.90;;;;;;5082188;28;20454;-70
2021/11/24 06:44:37;;;;;;;132.40;45.57;;;7.00;99.90;;;;;;5075724;28;21082;-71
2021/11/24 06:47:04;;;;;;;140.87;48.00;;;7.00;99.90;;;;;;5081268;28;20468;-71
2021/11/24 06:49:31;;;;;;;139.53;46.60;;;6.90;99.90;;;;;;5078151;28;20457;-70
2021/11/24 06:51:57;;;;;;;129.90;45.90;;;6.90;99.90;;;;;;5077749;28;20469;-70
2021/11/24 06:54:24;;;;;;;122.80;45.67;;;6.90;99.90;;;;;;5073158;28;20463;-70
2021/11/24 06:56:52;;;;;;;107.77;45.90;;;7.00;99.90;;;;;;5079576;28;20462;-73
2021/11/24 06:59:20;;;;;;;110.17;45.00;;;7.00;99.90;;;;;;5077924;28;21018;-72
2021/11/24 07:01:47;;;;;;;114.60;47.03;;;7.00;99.90;;;;;;5086338;28;20461;-72
2021/11/24 07:04:14;;;;;;;112.57;46.00;;;7.00;99.90;;;;;;5084333;28;20634;-71
2021/11/24 07:06:41;;;;;;;107.00;44.47;;;7.00;99.90;;;;;;5074641;28;20457;-73
2021/11/24 07:09:11;;;;;;;103.37;44.80;;;7.00;99.90;;;;;;5076540;28;20540;-71
2021/11/24 07:11:38;;;;;;;109.50;45.77;;;7.00;99.90;;;;;;5075596;28;20847;-71
2021/11/24 07:14:08;;;;;;;114.37;44.73;;;7.00;99.90;;;;;;5075546;28;20497;-71
2021/11/24 07:16:35;;;;;;;119.17;45.10;;;7.00;99.90;;;;;;5087818;28;20460;-71
2021/11/24 07:19:02;;;;;;;111.03;44.40;;;7.10;99.90;;;;;;5080917;28;20518;-72
2021/11/24 07:21:30;;;;;;;100.50;44.87;;;7.10;99.90;;;;;;5073064;28;20461;-71
2021/11/24 07:23:57;;;;;;;115.07;45.30;;;7.10;99.90;;;;;;5075749;28;20482;-70
2021/11/24 07:26:24;;;;;;;111.73;43.37;;;7.10;99.90;;;;;;5075942;28;20474;-70
2021/11/24 07:28:51;;;;;;;107.27;44.00;;;7.00;99.90;;;;;;5080568;28;20543;-70
2021/11/24 07:31:19;;;;;;;116.17;45.57;;;7.00;99.90;;;;;;5081804;28;20540;-70
2021/11/24 07:33:47;;;;;;;114.00;46.27;;;7.10;99.90;;;;;;5073661;28;20473;-69
2021/11/24 07:36:14;;;;;;;130.23;43.27;;;7.20;99.90;;;;;;5072428;28;20861;-69
2021/11/24 07:38:41;;;;;;;122.40;45.20;;;7.20;99.90;;;;;;5078453;28;20518;-70
2021/11/24 07:41:08;;;;;;;135.70;46.40;;;7.20;99.90;;;;;;5070670;28;20468;-72
2021/11/24 07:43:36;;;;;;;121.07;45.30;;;7.20;99.90;;;;;;5082429;28;20839;-70
2021/11/24 07:46:03;;;;;;;115.93;45.37;;;7.30;99.90;;;;;;5082066;28;20839;-70
2021/11/24 07:48:31;;;;;;;107.33;46.20;;;7.20;99.90;;;;;;5085751;28;20458;-70
2021/11/24 07:50:58;;;;;;;115.00;46.23;;;7.20;99.90;;;;;;5084226;28;20465;-70
2021/11/24 07:53:25;;;;;;;110.87;45.33;;;7.20;99.90;;;;;;5087032;28;20467;-69
2021/11/24 07:55:52;;;;;;;146.27;47.70;;;7.20;99.90;;;;;;5082948;28;20469;-70
2021/11/24 07:58:19;;;;;;;133.17;49.27;;;7.30;99.90;;;;;;5081685;28;20954;-70
2021/11/24 08:00:46;;;;;;;118.40;47.03;;;7.40;99.90;;;;;;5078023;28;20462;-70
2021/11/24 08:03:13;;;;;;;134.53;45.67;;;7.50;99.90;;;;;;5086031;28;20484;-70
2021/11/24 08:05:41;;;;;;;112.40;45.63;;;7.50;99.90;;;;;;5092186;28;20493;-70
2021/11/24 08:08:08;;;;;;;134.60;47.00;;;7.50;99.90;;;;;;5082515;28;20453;-70
2021/11/24 08:10:36;;;;;;;111.20;46.57;;;7.40;99.90;;;;;;5081858;28;20462;-72
2021/11/24 08:13:03;;;;;;;132.40;47.73;;;7.50;99.90;;;;;;5075397;28;20475;-73
2021/11/24 08:15:30;;;;;;;125.80;46.53;;;7.50;99.90;;;;;;5080979;28;20475;-74
2021/11/24 08:17:58;;;;;;;97.17;42.60;;;7.40;99.90;;;;;;5083682;28;20809;-70
2021/11/24 08:20:25;;;;;;;98.50;45.50;;;7.40;99.90;;;;;;5074950;28;20525;-70
2021/11/24 08:22:53;;;;;;;89.60;42.47;;;7.40;99.90;;;;;;5074769;28;20539;-70
2021/11/24 08:25:20;;;;;;;141.40;45.50;;;7.40;99.90;;;;;;5074225;28;20511;-70
2021/11/24 08:27:48;;;;;;;125.77;46.60;;;7.50;99.90;;;;;;5077687;28;20468;-70
2021/11/24 08:30:15;;;;;;;115.27;45.40;;;7.60;99.90;;;;;;5079586;28;20502;-70
2021/11/24 08:32:42;;;;;;;114.00;45.67;;;7.40;99.90;;;;;;5082573;28;20597;-70
2021/11/24 08:35:10;;;;;;;118.97;47.70;;;7.40;99.90;;;;;;5073670;28;20521;-70
2021/11/24 08:37:38;;;;;;;109.87;46.40;;;7.30;99.90;;;;;;5082038;28;20472;-70
2021/11/24 08:40:08;;;;;;;104.43;46.20;;;7.30;99.90;;;;;;5085071;28;20471;-70
2021/11/24 08:42:35;;;;;;;102.23;44.87;;;7.40;99.90;;;;;;5082445;28;20467;-70
2021/11/24 08:45:04;;;;;;;126.20;47.30;;;7.40;99.90;;;;;;5079371;28;20509;-70
2021/11/24 08:47:31;;;;;;;103.00;49.13;;;7.40;99.90;;;;;;5082348;28;20476;-70
2021/11/24 08:49:57;;;;;;;107.67;47.70;;;7.40;99.90;;;;;;5076864;28;20506;-70
2021/11/24 08:52:24;;;;;;;98.13;43.97;;;7.30;99.90;;;;;;5079205;28;20472;-70
2021/11/24 08:54:52;;;;;;;91.90;42.60;;;7.50;99.90;;;;;;5078402;28;20552;-69
2021/11/24 08:57:22;;;;;;;86.87;43.67;;;7.60;99.90;;;;;;5081344;28;20490;-75
2021/11/24 08:59:49;;;;;;;83.87;42.30;;;7.70;99.90;;;;;;5082506;28;20462;-70
2021/11/24 09:02:16;;;;;;;108.13;44.37;;;7.70;99.90;;;;;;5082714;28;20516;-70
2021/11/24 09:04:43;;;;;;;80.70;43.60;;;7.60;99.90;;;;;;5076618;28;20498;-70
2021/11/24 09:07:10;;;;;;;84.20;43.73;;;7.80;99.90;;;;;;5084307;28;20539;-70
2021/11/24 09:09:39;;;;;;;86.63;43.67;;;7.80;99.90;;;;;;5074954;28;20467;-70
2021/11/24 09:12:07;;;;;;;79.70;43.93;;;7.80;99.90;;;;;;5079482;28;20466;-70
2021/11/24 09:14:35;;;;;;;84.90;41.77;;;7.80;99.90;;;;;;5079612;28;20952;-70
2021/11/24 09:17:02;;;;;;;86.57;45.23;;;7.80;99.90;;;;;;5084368;28;20470;-70
2021/11/24 09:19:29;;;;;;;85.50;44.23;;;7.90;99.90;;;;;;5082029;28;20530;-70
2021/11/24 09:21:56;;;;;;;81.73;44.43;;;8.00;99.90;;;;;;5084499;28;20469;-70
2021/11/24 09:24:26;;;;;;;93.20;42.50;;;8.20;99.90;;;;;;5087753;28;20492;-70
2021/11/24 09:26:57;;;;;;;81.90;43.17;;;8.20;99.90;;;;;;5083496;28;20470;-70
2021/11/24 09:29:26;;;;;;;85.57;46.03;;;8.20;99.90;;;;;;5084133;28;20466;-70
2021/11/24 09:31:55;;;;;;;74.57;42.40;;;8.20;99.90;;;;;;5078505;28;20468;-70
2021/11/24 09:34:23;;;;;;;87.13;45.70;;;8.40;99.90;;;;;;5084826;28;20489;-70
2021/11/24 09:36:50;;;;;;;98.43;47.13;;;8.50;99.90;;;;;;5084167;28;20517;-73
2021/11/24 09:39:17;;;;;;;77.80;45.00;;;8.60;99.90;;;;;;5082756;28;20993;-73
2021/11/24 09:41:46;;;;;;;87.47;46.10;;;8.80;99.90;;;;;;5081395;28;20869;-70
2021/11/24 09:44:13;;;;;;;82.67;46.17;;;8.70;99.90;;;;;;5080952;28;20486;-70
2021/11/24 09:46:44;;;;;;;88.33;44.40;;;8.80;99.90;;;;;;5077090;28;20554;-71
2021/11/24 09:49:14;;;;;;;82.90;46.90;;;8.80;99.90;;;;;;5088318;28;20465;-73
2021/11/24 09:51:42;;;;;;;86.60;47.97;;;8.80;99.90;;;;;;5083854;28;20454;-70
2021/11/24 09:54:13;;;;;;;84.37;46.77;;;8.80;99.90;;;;;;5078512;28;20463;-71
2021/11/24 09:56:41;;;;;;;93.93;48.17;;;8.80;99.90;;;;;;5079222;28;20462;-71
2021/11/24 09:59:08;;;;;;;89.33;48.40;;;8.60;99.90;;;;;;5074144;28;20838;-70
2021/11/24 10:01:37;;;;;;;88.17;47.20;;;8.70;99.90;;;;;;5083557;28;20470;-74
2021/11/24 10:04:05;;;;;;;85.53;48.50;;;8.80;99.90;;;;;;5085192;28;20557;-69
2021/11/24 10:06:34;;;;;;;99.60;50.60;;;8.90;99.90;;;;;;5080181;28;20521;-70
2021/11/24 10:09:02;;;;;;;78.80;45.30;;;8.90;99.90;;;;;;5070348;28;20539;-74
2021/11/24 10:11:29;;;;;;;91.43;46.67;;;9.00;99.90;;;;;;5066248;28;20462;-69
2021/11/24 10:13:56;;;;;;;82.17;47.40;;;9.00;99.90;;;;;;5075179;28;20952;-70
2021/11/24 10:16:25;;;;;;;71.93;45.77;;;8.90;99.90;;;;;;5084106;28;20467;-70
2021/11/24 10:19:00;;;;;;;77.10;43.27;;;9.00;99.90;;;;;;5075751;28;20901;-72
2021/11/24 10:21:28;;;;;;;76.27;44.47;;;9.30;99.90;;;;;;5074930;28;20537;-70
2021/11/24 10:23:59;;;;;;;73.43;45.90;;;9.50;99.90;;;;;;5074109;28;20490;-71
2021/11/24 10:26:29;;;;;;;76.90;43.40;;;9.60;99.90;;;;;;5072116;28;20490;-70
2021/11/24 10:28:58;;;;;;;81.80;47.70;;;9.60;99.90;;;;;;5073938;28;20949;-70
2021/11/24 10:31:38;;;;;;;69.07;43.50;;;9.70;99.90;;;;;;5074585;28;20984;-70
2021/11/24 10:34:13;;;;;;;71.23;43.63;;;9.90;99.90;;;;;;5067855;28;20577;-71
2021/11/24 10:36:55;;;;;;;74.53;43.47;;;9.90;99.90;;;;;;5078621;28;20461;-74
2021/11/24 10:39:27;;;;;;;69.40;43.70;;;9.80;99.90;;;;;;5077263;28;20557;-70
2021/11/24 10:42:02;;;;;;;68.77;43.97;;;9.90;99.90;;;;;;5078103;28;21026;-72
2021/11/24 10:44:30;;;;;;;63.30;42.40;;;9.80;99.90;;;;;;5075298;28;20485;-70
2021/11/24 10:46:59;;;;;;;59.93;42.73;;;9.60;99.90;;;;;;5078442;28;20732;-70
2021/11/24 10:49:35;;;;;;;63.33;44.13;;;9.70;99.90;;;;;;5081210;28;20484;-74
2021/11/24 10:52:13;;;;;;;78.80;42.90;;;9.70;99.90;;;;;;5080372;28;20817;-71
2021/11/24 10:54:41;;;;;;;65.30;41.80;;;9.70;99.90;;;;;;5076514;28;20567;-74
2021/11/24 10:57:10;;;;;;;63.30;41.53;;;9.80;99.90;;;;;;5073147;28;20462;-71
2021/11/24 10:59:40;;;;;;;66.93;42.70;;;9.80;99.90;;;;;;5073226;28;20455;-70
2021/11/24 11:02:24;;;;;;;64.83;40.67;;;9.50;99.90;;;;;;5074537;28;20501;-73
2021/11/24 11:04:59;;;;;;;67.10;41.97;;;9.70;99.90;;;;;;5077679;28;20459;-73
2021/11/24 11:07:27;;;;;;;62.13;40.10;;;9.80;99.90;;;;;;5079467;28;20499;-72
2021/11/24 11:10:05;;;;;;;71.37;42.17;;;9.80;99.90;;;;;;5077617;28;20469;-71
2021/11/24 11:12:33;;;;;;;75.10;41.47;;;9.80;99.90;;;;;;5067695;28;20918;-71
2021/11/24 11:15:23;;;;;;;59.47;40.33;;;10.00;99.90;;;;;;5078342;28;20492;-74
2021/11/24 11:18:12;;;;;;;60.10;40.20;;;10.00;99.90;;;;;;5074172;28;20466;-72
2021/11/24 11:20:42;;;;;;;64.97;40.47;;;9.70;99.90;;;;;;5076438;28;20462;-71
2021/11/24 11:23:17;;;;;;;58.07;41.00;;;9.70;99.90;;;;;;5072669;28;20943;-71
2021/11/24 11:25:47;;;;;;;67.30;42.23;;;9.80;99.90;;;;;;5082441;28;21119;-73
2021/11/24 11:28:15;;;;;;;66.80;40.67;;;9.80;99.90;;;;;;5079481;28;20557;-73
2021/11/24 11:30:44;;;;;;;62.60;41.30;;;9.90;99.90;;;;;;5079863;28;20463;-76
2021/11/24 11:33:14;;;;;;;58.20;39.23;;;10.00;99.90;;;;;;5081396;28;20982;-71
2021/11/24 11:35:42;;;;;;;64.20;41.30;;;10.00;99.90;;;;;;5080041;28;20561;-71
2021/11/24 11:38:09;;;;;;;54.20;38.80;;;10.10;99.90;;;;;;5079733;28;20449;-71
2021/11/24 11:40:37;;;;;;;60.90;38.33;;;10.20;99.90;;;;;;5084621;28;20822;-71
2021/11/24 11:43:08;;;;;;;60.83;38.37;;;10.10;99.90;;;;;;5079246;28;20992;-71
2021/11/24 11:45:36;;;;;;;60.67;39.60;;;10.10;99.90;;;;;;5074759;28;20497;-71
2021/11/24 11:48:06;;;;;;;61.90;39.17;;;10.00;99.90;;;;;;5077930;28;20469;-74
2021/11/24 11:50:54;;;;;;;66.03;39.87;;;10.20;99.90;;;;;;5082042;28;20848;-71
2021/11/24 11:53:24;;;;;;;56.07;36.47;;;10.40;99.90;;;;;;5077753;28;20469;-73
2021/11/24 11:56:11;;;;;;;56.27;38.60;;;10.40;99.90;;;;;;5082053;28;20896;-73
2021/11/24 11:58:58;;;;;;;57.40;38.80;;;10.40;99.90;;;;;;5079265;28;20843;-71
2021/11/24 12:01:29;;;;;;;52.80;36.07;;;10.50;99.90;;;;;;5084744;28;20489;-74
2021/11/24 12:04:11;;;;;;;61.37;39.63;;;10.50;99.90;;;;;;5078227;28;20469;-71
2021/11/24 12:06:42;;;;;;;50.33;37.23;;;10.30;99.90;;;;;;5079585;28;20624;-71
2021/11/24 12:09:21;;;;;;;63.60;37.93;;;10.30;99.90;;;;;;5077708;28;20462;-70
2021/11/24 12:12:20;;;;;;;51.37;37.77;;;10.40;99.90;;;;;;5079014;28;20458;-71
2021/11/24 12:15:01;;;;;;;55.13;35.33;;;10.60;99.90;;;;;;5081409;28;20937;-72
2021/11/24 12:17:36;;;;;;;52.33;37.37;;;10.60;99.90;;;;;;5080363;28;20472;-71
2021/11/24 12:20:39;;;;;;;44.07;34.47;;;10.60;99.90;;;;;;5084313;28;20466;-73
2021/11/24 12:23:06;;;;;;;45.87;35.93;;;10.70;99.90;;;;;;5082520;28;20457;-69
2021/11/24 12:25:46;;;;;;;44.80;35.83;;;10.70;99.90;;;;;;5077758;28;20482;-70
2021/11/24 12:28:16;;;;;;;43.47;34.50;;;10.60;99.90;;;;;;5075967;28;20504;-70
2021/11/24 12:31:07;;;;;;;47.90;33.27;;;10.70;99.90;;;;;;5079971;28;20550;-74
2021/11/24 12:33:42;;;;;;;43.90;34.20;;;10.80;99.90;;;;;;5079158;28;20535;-71
2021/11/24 12:36:12;;;;;;;38.00;33.03;;;10.70;99.90;;;;;;5076129;28;20544;-70
2021/11/24 12:38:42;;;;;;;43.97;33.50;;;10.90;99.90;;;;;;5080645;28;20463;-70